sensor_id;sensor_type;location;lat;lon;timestamp;temperature;humidity
36352;DHT22;22382;44.768;17.206;2023-02-28T00:00:34;2.50;99.90
36352;DHT22;22382;44.768;17.206;2023-02-28T00:03:01;2.40;99.90
36352;DHT22;22382;44.768;17.206;2023-02-28T00:05:28;2.40;99.90
36352;DHT22;22382;44.768;17.206;2023-02-28T00:07:56;2.60;99.90
36352;DHT22;22382;44.768;17.206;2023-02-28T00:10:27;2.60;99.90
36352;DHT22;22382;44.768;17.206;2023-02-28T00:12:55;2.60;99.90
36352;DHT22;22382;44.768;17.206;2023-02-28T00:15:23;2.70;99.90
36352;DHT22;22382;44.768;17.206;2023-02-28T00:17:50;2.80;99.90
36352;DHT22;22382;44.768;17.206;2023-02-28T00:20:18;2.70;99.90
36352;DHT22;22382;44.768;17.206;2023-02-28T00:22:46;2.60;99.90
36352;DHT22;22382;44.768;17.206;2023-02-28T00:25:14;2.60;99.90
36352;DHT22;22382;44.768;17.206;2023-02-28T00:27:41;2.60;99.90
36352;DHT22;22382;44.768;17.206;2023-02-28T00:30:12;2.80;99.90
36352;DHT22;22382;44.768;17.206;2023-02-28T00:32:39;2.80;99.90
36352;DHT22;22382;44.768;17.206;2023-02-28T00:35:07;2.70;99.90
36352;DHT22;22382;44.768;17.206;2023-02-28T00:37:34;2.60;99.90
36352;DHT22;22382;44.768;17.206;2023-02-28T00:40:01;2.60;99.90
36352;DHT22;22382;44.768;17.206;2023-02-28T00:42:31;2.70;99.90
36352;DHT22;22382;44.768;17.206;2023-02-28T00:44:58;2.70;99.90
36352;DHT22;22382;44.768;17.206;2023-02-28T00:47:25;2.70;99.90
36352;DHT22;22382;44.768;17.206;2023-02-28T00:49:52;2.70;99.90
36352;DHT22;22382;44.768;17.206;2023-02-28T00:52:19;2.80;99.90
36352;DHT22;22382;44.768;17.206;2023-02-28T00:54:46;2.70;99.90
36352;DHT22;22382;44.768;17.206;2023-02-28T00:57:13;2.70;99.90
36352;DHT22;22382;44.768;17.206;2023-02-28T00:59:40;2.60;99.90
36352;DHT22;22382;44.768;17.206;2023-02-28T01:02:07;2.60;99.90
36352;DHT22;22382;44.768;17.206;2023-02-28T01:04:33;2.60;99.90
36352;DHT22;22382;44.768;17.206;2023-02-28T01:07:00;2.60;99.90
36352;DHT22;22382;44.768;17.206;2023-02-28T01:09:28;2.60;99.90
36352;DHT22;22382;44.768;17.206;2023-02-28T01:11:55;2.60;99.90
36352;DHT22;22382;44.768;17.206;2023-02-28T01:14:22;2.60;99.90
36352;DHT22;22382;44.768;17.206;2023-02-28T01:16:49;2.50;99.90
36352;DHT22;22382;44.768;17.206;2023-02-28T01:19:16;2.60;99.90
36352;DHT22;22382;44.768;17.206;2023-02-28T01:21:43;2.60;99.90
36352;DHT22;22382;44.768;17.206;2023-02-28T01:24:10;2.90;99.90
36352;DHT22;22382;44.768;17.206;2023-02-28T01:26:36;2.90;99.90
36352;DHT22;22382;44.768;17.206;2023-02-28T01:29:03;3.00;99.90
36352;DHT22;22382;44.768;17.206;2023-02-28T01:31:30;3.10;99.90
36352;DHT22;22382;44.768;17.206;2023-02-28T01:33:58;3.00;99.90
36352;DHT22;22382;44.768;17.206;2023-02-28T01:36:25;3.00;99.90
36352;DHT22;22382;44.768;17.206;2023-02-28T01:38:52;2.90;99.90
36352;DHT22;22382;44.768;17.206;2023-02-28T01:41:23;3.00;99.90
36352;DHT22;22382;44.768;17.206;2023-02-28T01:43:54;2.90;99.90
36352;DHT22;22382;44.768;17.206;2023-02-28T01:46:21;2.70;99.90
36352;DHT22;22382;44.768;17.206;2023-02-28T01:48:53;2.80;99.90
36352;DHT22;22382;44.768;17.206;2023-02-28T01:51:26;2.70;99.90
36352;DHT22;22382;44.768;17.206;2023-02-28T01:53:55;2.80;99.90
36352;DHT22;22382;44.768;17.206;2023-02-28T01:56:24;2.70;99.90
36352;DHT22;22382;44.768;17.206;2023-02-28T01:58:53;2.70;99.90
36352;DHT22;22382;44.768;17.206;2023-02-28T02:01:20;2.80;99.90
36352;DHT22;22382;44.768;17.206;2023-02-28T02:03:49;2.80;99.90
36352;DHT22;22382;44.768;17.206;2023-02-28T02:06:22;2.90;99.90
36352;DHT22;22382;44.768;17.206;2023-02-28T02:08:49;2.90;99.90
36352;DHT22;22382;44.768;17.206;2023-02-28T02:11:17;2.90;99.90
36352;DHT22;22382;44.768;17.206;2023-02-28T02:18:57;2.70;99.90
36352;DHT22;22382;44.768;17.206;2023-02-28T02:21:42;2.60;99.90
36352;DHT22;22382;44.768;17.206;2023-02-28T02:26:47;3.00;99.90
36352;DHT22;22382;44.768;17.206;2023-02-28T02:29:28;2.90;99.90
36352;DHT22;22382;44.768;17.206;2023-02-28T02:37:05;2.80;99.90
36352;DHT22;22382;44.768;17.206;2023-02-28T02:39:45;2.70;99.90
36352;DHT22;22382;44.768;17.206;2023-02-28T02:42:16;2.80;99.90
36352;DHT22;22382;44.768;17.206;2023-02-28T02:44:47;2.60;99.90
36352;DHT22;22382;44.768;17.206;2023-02-28T02:47:16;2.60;99.90
36352;DHT22;22382;44.768;17.206;2023-02-28T02:49:46;2.50;99.90
36352;DHT22;22382;44.768;17.206;2023-02-28T02:52:14;2.50;99.90
36352;DHT22;22382;44.768;17.206;2023-02-28T02:54:43;2.70;99.90
36352;DHT22;22382;44.768;17.206;2023-02-28T02:57:13;2.80;99.90
36352;DHT22;22382;44.768;17.206;2023-02-28T02:59:41;2.90;99.90
36352;DHT22;22382;44.768;17.206;2023-02-28T03:02:09;2.80;99.90
36352;DHT22;22382;44.768;17.206;2023-02-28T03:04:42;2.70;99.90
36352;DHT22;22382;44.768;17.206;2023-02-28T03:07:10;2.70;99.90
36352;DHT22;22382;44.768;17.206;2023-02-28T03:09:37;2.60;99.90
36352;DHT22;22382;44.768;17.206;2023-02-28T03:12:04;2.50;99.90
36352;DHT22;22382;44.768;17.206;2023-02-28T03:22:43;2.40;99.90
36352;DHT22;22382;44.768;17.206;2023-02-28T03:30:20;2.50;99.90
36352;DHT22;22382;44.768;17.206;2023-02-28T03:33:11;2.60;99.90
36352;DHT22;22382;44.768;17.206;2023-02-28T03:35:47;2.60;99.90
36352;DHT22;22382;44.768;17.206;2023-02-28T03:38:22;2.60;99.90
36352;DHT22;22382;44.768;17.206;2023-02-28T03:40:53;2.50;99.90
36352;DHT22;22382;44.768;17.206;2023-02-28T03:43:24;2.60;99.90
36352;DHT22;22382;44.768;17.206;2023-02-28T03:45:53;2.60;99.90
36352;DHT22;22382;44.768;17.206;2023-02-28T03:48:24;2.70;99.90
36352;DHT22;22382;44.768;17.206;2023-02-28T03:50:53;2.70;99.90
36352;DHT22;22382;44.768;17.206;2023-02-28T03:53:26;2.60;99.90
36352;DHT22;22382;44.768;17.206;2023-02-28T03:55:55;2.60;99.90
36352;DHT22;22382;44.768;17.206;2023-02-28T03:58:47;2.70;99.90
36352;DHT22;22382;44.768;17.206;2023-02-28T04:04:08;2.90;99.90
36352;DHT22;22382;44.768;17.206;2023-02-28T04:06:35;2.70;99.90
36352;DHT22;22382;44.768;17.206;2023-02-28T04:09:03;2.60;99.90
36352;DHT22;22382;44.768;17.206;2023-02-28T04:11:34;2.70;99.90
36352;DHT22;22382;44.768;17.206;2023-02-28T04:14:02;2.80;99.90
36352;DHT22;22382;44.768;17.206;2023-02-28T04:16:30;2.70;99.90
36352;DHT22;22382;44.768;17.206;2023-02-28T04:19:02;2.70;99.90
36352;DHT22;22382;44.768;17.206;2023-02-28T04:21:29;2.80;99.90
36352;DHT22;22382;44.768;17.206;2023-02-28T04:23:57;2.80;99.90
36352;DHT22;22382;44.768;17.206;2023-02-28T04:26:30;2.80;99.90
36352;DHT22;22382;44.768;17.206;2023-02-28T04:28:57;2.70;99.90
36352;DHT22;22382;44.768;17.206;2023-02-28T04:31:24;2.70;99.90
36352;DHT22;22382;44.768;17.206;2023-02-28T04:33:51;2.60;99.90
36352;DHT22;22382;44.768;17.206;2023-02-28T04:36:18;2.40;99.90
36352;DHT22;22382;44.768;17.206;2023-02-28T04:38:46;2.50;99.90
36352;DHT22;22382;44.768;17.206;2023-02-28T04:41:13;2.60;99.90
36352;DHT22;22382;44.768;17.206;2023-02-28T04:43:40;2.60;99.90
36352;DHT22;22382;44.768;17.206;2023-02-28T04:46:07;2.60;99.90
36352;DHT22;22382;44.768;17.206;2023-02-28T04:48:35;2.40;99.90
36352;DHT22;22382;44.768;17.206;2023-02-28T04:51:03;2.60;99.90
36352;DHT22;22382;44.768;17.206;2023-02-28T04:53:31;2.70;99.90
36352;DHT22;22382;44.768;17.206;2023-02-28T04:55:58;2.60;99.90
36352;DHT22;22382;44.768;17.206;2023-02-28T04:58:25;2.50;99.90
36352;DHT22;22382;44.768;17.206;2023-02-28T05:00:52;2.40;99.90
36352;DHT22;22382;44.768;17.206;2023-02-28T05:03:20;2.30;99.90
36352;DHT22;22382;44.768;17.206;2023-02-28T05:05:48;2.30;99.90
36352;DHT22;22382;44.768;17.206;2023-02-28T05:08:15;2.30;99.90
36352;DHT22;22382;44.768;17.206;2023-02-28T05:10:42;2.30;99.90
36352;DHT22;22382;44.768;17.206;2023-02-28T05:13:12;2.40;99.90
36352;DHT22;22382;44.768;17.206;2023-02-28T05:15:39;2.50;99.90
36352;DHT22;22382;44.768;17.206;2023-02-28T05:18:07;2.40;99.90
36352;DHT22;22382;44.768;17.206;2023-02-28T05:20:34;2.40;99.90
36352;DHT22;22382;44.768;17.206;2023-02-28T05:23:01;2.40;99.90
36352;DHT22;22382;44.768;17.206;2023-02-28T05:25:29;2.40;99.90
36352;DHT22;22382;44.768;17.206;2023-02-28T05:27:56;2.30;99.90
36352;DHT22;22382;44.768;17.206;2023-02-28T05:30:23;2.30;99.90
36352;DHT22;22382;44.768;17.206;2023-02-28T05:32:50;2.40;99.90
36352;DHT22;22382;44.768;17.206;2023-02-28T05:35:18;2.50;99.90
36352;DHT22;22382;44.768;17.206;2023-02-28T05:37:44;2.50;99.90
36352;DHT22;22382;44.768;17.206;2023-02-28T05:40:12;2.40;99.90
36352;DHT22;22382;44.768;17.206;2023-02-28T05:42:39;2.40;99.90
36352;DHT22;22382;44.768;17.206;2023-02-28T05:45:06;2.30;99.90
36352;DHT22;22382;44.768;17.206;2023-02-28T05:47:34;2.30;99.90
36352;DHT22;22382;44.768;17.206;2023-02-28T05:50:02;2.30;99.90
36352;DHT22;22382;44.768;17.206;2023-02-28T05:52:29;2.30;99.90
36352;DHT22;22382;44.768;17.206;2023-02-28T05:54:59;2.30;99.90
36352;DHT22;22382;44.768;17.206;2023-02-28T05:57:26;2.30;99.90
36352;DHT22;22382;44.768;17.206;2023-02-28T05:59:53;2.20;99.90
36352;DHT22;22382;44.768;17.206;2023-02-28T06:02:20;2.20;99.90
36352;DHT22;22382;44.768;17.206;2023-02-28T06:04:47;2.20;99.90
36352;DHT22;22382;44.768;17.206;2023-02-28T06:07:14;2.10;99.90
36352;DHT22;22382;44.768;17.206;2023-02-28T06:09:41;2.10;99.90
36352;DHT22;22382;44.768;17.206;2023-02-28T06:12:09;2.10;99.90
36352;DHT22;22382;44.768;17.206;2023-02-28T06:14:36;2.00;99.90
36352;DHT22;22382;44.768;17.206;2023-02-28T06:17:03;2.00;99.90
36352;DHT22;22382;44.768;17.206;2023-02-28T06:19:31;2.00;99.90
36352;DHT22;22382;44.768;17.206;2023-02-28T06:21:58;2.00;99.90
36352;DHT22;22382;44.768;17.206;2023-02-28T06:24:26;2.00;99.90
36352;DHT22;22382;44.768;17.206;2023-02-28T06:26:57;2.10;99.90
36352;DHT22;22382;44.768;17.206;2023-02-28T06:29:25;2.10;99.90
36352;DHT22;22382;44.768;17.206;2023-02-28T06:31:52;2.00;99.90
36352;DHT22;22382;44.768;17.206;2023-02-28T06:34:19;2.00;99.90
36352;DHT22;22382;44.768;17.206;2023-02-28T06:36:46;2.00;99.90
36352;DHT22;22382;44.768;17.206;2023-02-28T06:39:13;2.00;99.90
36352;DHT22;22382;44.768;17.206;2023-02-28T06:41:40;2.00;99.90
36352;DHT22;22382;44.768;17.206;2023-02-28T06:44:20;2.10;99.90
36352;DHT22;22382;44.768;17.206;2023-02-28T06:46:47;2.20;99.90
36352;DHT22;22382;44.768;17.206;2023-02-28T06:49:15;2.30;99.90
36352;DHT22;22382;44.768;17.206;2023-02-28T06:51:43;2.50;99.90
36352;DHT22;22382;44.768;17.206;2023-02-28T06:54:13;2.50;99.90
36352;DHT22;22382;44.768;17.206;2023-02-28T06:56:40;2.60;99.90
36352;DHT22;22382;44.768;17.206;2023-02-28T06:59:07;2.70;99.90
36352;DHT22;22382;44.768;17.206;2023-02-28T07:01:34;2.80;99.90
36352;DHT22;22382;44.768;17.206;2023-02-28T07:04:01;2.80;99.90
36352;DHT22;22382;44.768;17.206;2023-02-28T07:06:28;2.80;99.90
36352;DHT22;22382;44.768;17.206;2023-02-28T07:08:55;2.90;99.90
36352;DHT22;22382;44.768;17.206;2023-02-28T07:11:23;3.00;99.90
36352;DHT22;22382;44.768;17.206;2023-02-28T07:13:52;2.90;99.90
36352;DHT22;22382;44.768;17.206;2023-02-28T07:16:20;3.00;99.90
36352;DHT22;22382;44.768;17.206;2023-02-28T07:18:47;3.00;99.90
36352;DHT22;22382;44.768;17.206;2023-02-28T07:21:14;3.10;99.90
36352;DHT22;22382;44.768;17.206;2023-02-28T07:23:41;3.10;99.90
36352;DHT22;22382;44.768;17.206;2023-02-28T07:26:13;3.20;99.90
36352;DHT22;22382;44.768;17.206;2023-02-28T07:28:41;3.20;99.90
36352;DHT22;22382;44.768;17.206;2023-02-28T07:31:11;3.20;99.90
36352;DHT22;22382;44.768;17.206;2023-02-28T07:33:40;3.20;99.90
36352;DHT22;22382;44.768;17.206;2023-02-28T07:36:12;3.20;99.90
36352;DHT22;22382;44.768;17.206;2023-02-28T07:38:44;3.20;99.90
36352;DHT22;22382;44.768;17.206;2023-02-28T07:41:14;3.10;99.90
36352;DHT22;22382;44.768;17.206;2023-02-28T07:43:42;3.10;99.90
36352;DHT22;22382;44.768;17.206;2023-02-28T07:46:10;3.10;99.90
36352;DHT22;22382;44.768;17.206;2023-02-28T07:48:37;3.00;99.90
36352;DHT22;22382;44.768;17.206;2023-02-28T07:51:05;3.10;99.90
36352;DHT22;22382;44.768;17.206;2023-02-28T07:53:32;3.20;99.90
36352;DHT22;22382;44.768;17.206;2023-02-28T07:55:59;3.20;99.90
36352;DHT22;22382;44.768;17.206;2023-02-28T07:58:28;3.20;99.90
36352;DHT22;22382;44.768;17.206;2023-02-28T08:00:55;3.20;99.90
36352;DHT22;22382;44.768;17.206;2023-02-28T08:03:23;3.30;99.90
36352;DHT22;22382;44.768;17.206;2023-02-28T08:05:50;3.20;99.90
36352;DHT22;22382;44.768;17.206;2023-02-28T08:08:16;3.20;99.90
36352;DHT22;22382;44.768;17.206;2023-02-28T08:10:43;3.20;99.90
36352;DHT22;22382;44.768;17.206;2023-02-28T08:13:10;3.40;99.90
36352;DHT22;22382;44.768;17.206;2023-02-28T08:15:37;3.40;99.90
36352;DHT22;22382;44.768;17.206;2023-02-28T08:18:04;3.60;99.90
36352;DHT22;22382;44.768;17.206;2023-02-28T08:20:31;3.50;99.90
36352;DHT22;22382;44.768;17.206;2023-02-28T08:22:58;3.50;99.90
36352;DHT22;22382;44.768;17.206;2023-02-28T08:25:25;3.60;99.90
36352;DHT22;22382;44.768;17.206;2023-02-28T08:27:52;3.70;99.90
36352;DHT22;22382;44.768;17.206;2023-02-28T08:30:19;3.70;99.90
36352;DHT22;22382;44.768;17.206;2023-02-28T08:32:46;3.90;99.90
36352;DHT22;22382;44.768;17.206;2023-02-28T08:35:13;3.90;99.90
36352;DHT22;22382;44.768;17.206;2023-02-28T08:37:40;3.70;99.90
36352;DHT22;22382;44.768;17.206;2023-02-28T08:40:07;3.70;99.90
36352;DHT22;22382;44.768;17.206;2023-02-28T08:42:35;3.70;99.90
36352;DHT22;22382;44.768;17.206;2023-02-28T08:45:02;3.80;99.90
36352;DHT22;22382;44.768;17.206;2023-02-28T08:47:29;3.80;99.90
36352;DHT22;22382;44.768;17.206;2023-02-28T08:49:56;3.80;99.90
36352;DHT22;22382;44.768;17.206;2023-02-28T08:52:23;3.90;99.90
36352;DHT22;22382;44.768;17.206;2023-02-28T08:54:49;3.80;99.90
36352;DHT22;22382;44.768;17.206;2023-02-28T08:57:16;4.00;99.90
36352;DHT22;22382;44.768;17.206;2023-02-28T08:59:43;4.10;99.90
36352;DHT22;22382;44.768;17.206;2023-02-28T09:02:14;4.00;99.90
36352;DHT22;22382;44.768;17.206;2023-02-28T09:04:41;4.00;99.90
36352;DHT22;22382;44.768;17.206;2023-02-28T09:07:08;4.00;99.90
36352;DHT22;22382;44.768;17.206;2023-02-28T09:09:35;4.10;99.90
36352;DHT22;22382;44.768;17.206;2023-02-28T09:12:02;4.00;99.90
36352;DHT22;22382;44.768;17.206;2023-02-28T09:14:29;4.10;99.90
36352;DHT22;22382;44.768;17.206;2023-02-28T09:16:55;4.30;99.90
36352;DHT22;22382;44.768;17.206;2023-02-28T09:19:22;4.30;99.90
36352;DHT22;22382;44.768;17.206;2023-02-28T09:21:49;4.30;99.90
36352;DHT22;22382;44.768;17.206;2023-02-28T09:24:16;4.20;99.90
36352;DHT22;22382;44.768;17.206;2023-02-28T09:26:44;4.20;99.90
36352;DHT22;22382;44.768;17.206;2023-02-28T09:29:29;4.10;99.90
36352;DHT22;22382;44.768;17.206;2023-02-28T09:31:56;4.10;99.90
36352;DHT22;22382;44.768;17.206;2023-02-28T09:34:26;4.10;99.90
36352;DHT22;22382;44.768;17.206;2023-02-28T09:36:53;4.10;99.90
36352;DHT22;22382;44.768;17.206;2023-02-28T09:39:22;4.10;99.90
36352;DHT22;22382;44.768;17.206;2023-02-28T09:41:50;4.00;99.90
36352;DHT22;22382;44.768;17.206;2023-02-28T09:44:31;4.10;99.90
36352;DHT22;22382;44.768;17.206;2023-02-28T09:47:01;4.20;99.90
36352;DHT22;22382;44.768;17.206;2023-02-28T09:49:38;4.10;99.90
36352;DHT22;22382;44.768;17.206;2023-02-28T09:52:17;4.00;99.90
36352;DHT22;22382;44.768;17.206;2023-02-28T09:54:46;3.90;99.90
36352;DHT22;22382;44.768;17.206;2023-02-28T09:57:25;4.00;99.90
36352;DHT22;22382;44.768;17.206;2023-02-28T10:05:08;4.10;99.90
36352;DHT22;22382;44.768;17.206;2023-02-28T10:10:04;3.90;99.90
36352;DHT22;22382;44.768;17.206;2023-02-28T10:12:33;3.90;99.90
36352;DHT22;22382;44.768;17.206;2023-02-28T10:15:04;4.00;99.90
36352;DHT22;22382;44.768;17.206;2023-02-28T10:17:37;4.00;99.90
36352;DHT22;22382;44.768;17.206;2023-02-28T10:20:24;3.90;99.90
36352;DHT22;22382;44.768;17.206;2023-02-28T10:25:44;3.80;99.90
36352;DHT22;22382;44.768;17.206;2023-02-28T10:28:15;3.90;99.90
36352;DHT22;22382;44.768;17.206;2023-02-28T10:30:43;3.80;99.90
36352;DHT22;22382;44.768;17.206;2023-02-28T10:33:34;3.90;99.90
36352;DHT22;22382;44.768;17.206;2023-02-28T10:35:59;3.80;99.90
36352;DHT22;22382;44.768;17.206;2023-02-28T10:38:27;3.90;99.90
36352;DHT22;22382;44.768;17.206;2023-02-28T10:43:30;3.90;99.90
36352;DHT22;22382;44.768;17.206;2023-02-28T10:45:58;3.80;99.90
36352;DHT22;22382;44.768;17.206;2023-02-28T10:48:50;3.80;99.90
36352;DHT22;22382;44.768;17.206;2023-02-28T10:51:15;3.90;99.90
36352;DHT22;22382;44.768;17.206;2023-02-28T10:56:26;3.70;99.90
36352;DHT22;22382;44.768;17.206;2023-02-28T11:04:02;3.60;99.90
36352;DHT22;22382;44.768;17.206;2023-02-28T11:06:30;3.50;99.90
36352;DHT22;22382;44.768;17.206;2023-02-28T11:08:58;3.60;99.90
36352;DHT22;22382;44.768;17.206;2023-02-28T11:11:27;3.60;99.90
36352;DHT22;22382;44.768;17.206;2023-02-28T11:13:57;3.40;99.90
36352;DHT22;22382;44.768;17.206;2023-02-28T11:16:35;3.50;99.90
36352;DHT22;22382;44.768;17.206;2023-02-28T11:19:04;3.30;99.90
36352;DHT22;22382;44.768;17.206;2023-02-28T11:21:34;3.30;99.90
36352;DHT22;22382;44.768;17.206;2023-02-28T11:26:46;3.10;99.90
36352;DHT22;22382;44.768;17.206;2023-02-28T11:34:28;3.50;99.90
36352;DHT22;22382;44.768;17.206;2023-02-28T11:36:56;3.70;99.90
36352;DHT22;22382;44.768;17.206;2023-02-28T11:39:24;3.70;99.90
36352;DHT22;22382;44.768;17.206;2023-02-28T11:44:41;3.70;99.90
36352;DHT22;22382;44.768;17.206;2023-02-28T11:47:56;3.60;99.90
36352;DHT22;22382;44.768;17.206;2023-02-28T11:50:10;3.90;99.90
36352;DHT22;22382;44.768;17.206;2023-02-28T12:05:34;3.50;99.90
36352;DHT22;22382;44.768;17.206;2023-02-28T12:08:11;3.60;99.90
36352;DHT22;22382;44.768;17.206;2023-02-28T12:11:18;3.60;99.90
36352;DHT22;22382;44.768;17.206;2023-02-28T12:26:53;3.60;99.90
36352;DHT22;22382;44.768;17.206;2023-02-28T12:29:22;3.70;99.90
36352;DHT22;22382;44.768;17.206;2023-02-28T12:31:59;3.80;99.90
36352;DHT22;22382;44.768;17.206;2023-02-28T12:34:31;3.80;99.90
36352;DHT22;22382;44.768;17.206;2023-02-28T12:37:02;3.50;99.90
36352;DHT22;22382;44.768;17.206;2023-02-28T12:39:31;3.30;99.90
36352;DHT22;22382;44.768;17.206;2023-02-28T12:42:28;3.50;99.90
36352;DHT22;22382;44.768;17.206;2023-02-28T12:45:19;3.60;99.90
36352;DHT22;22382;44.768;17.206;2023-02-28T12:47:44;3.80;99.90
36352;DHT22;22382;44.768;17.206;2023-02-28T12:50:13;3.40;99.90
36352;DHT22;22382;44.768;17.206;2023-02-28T13:00:55;3.90;99.90
36352;DHT22;22382;44.768;17.206;2023-02-28T13:11:05;4.20;99.90
36352;DHT22;22382;44.768;17.206;2023-02-28T13:13:45;4.00;99.90
36352;DHT22;22382;44.768;17.206;2023-02-28T13:16:12;3.80;99.90
36352;DHT22;22382;44.768;17.206;2023-02-28T13:18:41;3.70;99.90
36352;DHT22;22382;44.768;17.206;2023-02-28T13:21:10;3.80;99.90
36352;DHT22;22382;44.768;17.206;2023-02-28T13:26:22;3.70;99.90
36352;DHT22;22382;44.768;17.206;2023-02-28T13:28:57;3.50;99.90
36352;DHT22;22382;44.768;17.206;2023-02-28T13:31:24;3.60;99.90
36352;DHT22;22382;44.768;17.206;2023-02-28T13:36:26;3.50;99.90
36352;DHT22;22382;44.768;17.206;2023-02-28T13:38:56;3.50;99.90
36352;DHT22;22382;44.768;17.206;2023-02-28T13:44:12;3.50;99.90
36352;DHT22;22382;44.768;17.206;2023-02-28T13:59:33;3.60;99.90
36352;DHT22;22382;44.768;17.206;2023-02-28T14:02:48;3.60;99.90
36352;DHT22;22382;44.768;17.206;2023-02-28T14:05:13;3.50;99.90
36352;DHT22;22382;44.768;17.206;2023-02-28T14:07:48;3.40;99.90
36352;DHT22;22382;44.768;17.206;2023-02-28T14:10:21;3.40;99.90
36352;DHT22;22382;44.768;17.206;2023-02-28T14:12:59;3.40;99.90
36352;DHT22;22382;44.768;17.206;2023-02-28T14:18:00;3.40;99.90
36352;DHT22;22382;44.768;17.206;2023-02-28T14:20:31;3.60;99.90
36352;DHT22;22382;44.768;17.206;2023-02-28T14:25:33;3.60;99.90
36352;DHT22;22382;44.768;17.206;2023-02-28T14:28:26;3.60;99.90
36352;DHT22;22382;44.768;17.206;2023-02-28T14:36:12;3.70;99.90
36352;DHT22;22382;44.768;17.206;2023-02-28T14:41:21;3.60;99.90
36352;DHT22;22382;44.768;17.206;2023-02-28T14:43:50;3.60;99.90
36352;DHT22;22382;44.768;17.206;2023-02-28T14:46:18;3.60;99.90
36352;DHT22;22382;44.768;17.206;2023-02-28T14:48:47;3.60;99.90
36352;DHT22;22382;44.768;17.206;2023-02-28T14:51:18;3.60;99.90
36352;DHT22;22382;44.768;17.206;2023-02-28T14:53:46;3.50;99.90
36352;DHT22;22382;44.768;17.206;2023-02-28T14:56:19;3.40;99.90
36352;DHT22;22382;44.768;17.206;2023-02-28T14:58:51;3.40;99.90
36352;DHT22;22382;44.768;17.206;2023-02-28T15:01:19;3.40;99.90
36352;DHT22;22382;44.768;17.206;2023-02-28T15:03:47;3.40;99.90
36352;DHT22;22382;44.768;17.206;2023-02-28T15:06:15;3.40;99.90
36352;DHT22;22382;44.768;17.206;2023-02-28T15:08:48;3.40;99.90
36352;DHT22;22382;44.768;17.206;2023-02-28T15:11:33;3.40;99.90
36352;DHT22;22382;44.768;17.206;2023-02-28T15:14:00;3.50;99.90
36352;DHT22;22382;44.768;17.206;2023-02-28T15:19:06;3.40;99.90
36352;DHT22;22382;44.768;17.206;2023-02-28T15:21:38;3.40;99.90
36352;DHT22;22382;44.768;17.206;2023-02-28T15:26:52;3.20;99.90
36352;DHT22;22382;44.768;17.206;2023-02-28T15:29:22;3.20;99.90
36352;DHT22;22382;44.768;17.206;2023-02-28T15:31:50;3.20;99.90
36352;DHT22;22382;44.768;17.206;2023-02-28T15:34:35;3.10;99.90
36352;DHT22;22382;44.768;17.206;2023-02-28T15:39:51;3.30;99.90
36352;DHT22;22382;44.768;17.206;2023-02-28T15:42:19;3.20;99.90
36352;DHT22;22382;44.768;17.206;2023-02-28T15:44:46;3.00;99.90
36352;DHT22;22382;44.768;17.206;2023-02-28T15:49:51;3.10;99.90
36352;DHT22;22382;44.768;17.206;2023-02-28T15:52:20;3.20;99.90
36352;DHT22;22382;44.768;17.206;2023-02-28T15:54:48;3.20;99.90
36352;DHT22;22382;44.768;17.206;2023-02-28T15:57:24;3.10;99.90
36352;DHT22;22382;44.768;17.206;2023-02-28T15:59:56;3.10;99.90
36352;DHT22;22382;44.768;17.206;2023-02-28T16:02:34;3.10;99.90
36352;DHT22;22382;44.768;17.206;2023-02-28T16:05:12;3.10;99.90
36352;DHT22;22382;44.768;17.206;2023-02-28T16:07:44;3.20;99.90
36352;DHT22;22382;44.768;17.206;2023-02-28T16:10:12;3.20;99.90
36352;DHT22;22382;44.768;17.206;2023-02-28T16:12:40;3.10;99.90
36352;DHT22;22382;44.768;17.206;2023-02-28T16:15:14;3.20;99.90
36352;DHT22;22382;44.768;17.206;2023-02-28T16:17:43;3.10;99.90
36352;DHT22;22382;44.768;17.206;2023-02-28T16:20:18;3.40;99.90
36352;DHT22;22382;44.768;17.206;2023-02-28T16:22:46;3.20;99.90
36352;DHT22;22382;44.768;17.206;2023-02-28T16:25:14;3.10;99.90
36352;DHT22;22382;44.768;17.206;2023-02-28T16:27:42;3.20;99.90
36352;DHT22;22382;44.768;17.206;2023-02-28T16:30:16;3.00;99.90
36352;DHT22;22382;44.768;17.206;2023-02-28T16:32:44;3.10;99.90
36352;DHT22;22382;44.768;17.206;2023-02-28T16:35:11;3.20;99.90
36352;DHT22;22382;44.768;17.206;2023-02-28T16:37:40;3.10;99.90
36352;DHT22;22382;44.768;17.206;2023-02-28T16:40:17;3.10;99.90
36352;DHT22;22382;44.768;17.206;2023-02-28T16:42:45;3.10;99.90
36352;DHT22;22382;44.768;17.206;2023-02-28T16:45:23;3.00;99.90
36352;DHT22;22382;44.768;17.206;2023-02-28T16:47:51;2.90;99.90
36352;DHT22;22382;44.768;17.206;2023-02-28T16:50:26;3.00;99.90
36352;DHT22;22382;44.768;17.206;2023-02-28T16:52:53;3.00;99.90
36352;DHT22;22382;44.768;17.206;2023-02-28T16:55:22;3.40;99.90
36352;DHT22;22382;44.768;17.206;2023-02-28T16:57:53;3.40;99.90
36352;DHT22;22382;44.768;17.206;2023-02-28T17:00:21;3.20;99.90
36352;DHT22;22382;44.768;17.206;2023-02-28T17:02:48;3.20;99.90
36352;DHT22;22382;44.768;17.206;2023-02-28T17:05:15;3.10;99.90
36352;DHT22;22382;44.768;17.206;2023-02-28T17:07:43;3.00;99.90
36352;DHT22;22382;44.768;17.206;2023-02-28T17:10:12;3.00;99.90
36352;DHT22;22382;44.768;17.206;2023-02-28T17:12:39;3.00;99.90
36352;DHT22;22382;44.768;17.206;2023-02-28T17:15:08;3.00;99.90
36352;DHT22;22382;44.768;17.206;2023-02-28T17:17:36;3.00;99.90
36352;DHT22;22382;44.768;17.206;2023-02-28T17:20:03;2.90;99.90
36352;DHT22;22382;44.768;17.206;2023-02-28T17:22:30;3.00;99.90
36352;DHT22;22382;44.768;17.206;2023-02-28T17:24:57;3.00;99.90
36352;DHT22;22382;44.768;17.206;2023-02-28T17:27:25;3.00;99.90
36352;DHT22;22382;44.768;17.206;2023-02-28T17:29:52;3.00;99.90
36352;DHT22;22382;44.768;17.206;2023-02-28T17:32:19;3.00;99.90
36352;DHT22;22382;44.768;17.206;2023-02-28T17:34:46;3.00;99.90
36352;DHT22;22382;44.768;17.206;2023-02-28T17:37:13;3.00;99.90
36352;DHT22;22382;44.768;17.206;2023-02-28T17:39:40;2.90;99.90
36352;DHT22;22382;44.768;17.206;2023-02-28T17:42:07;3.00;99.90
36352;DHT22;22382;44.768;17.206;2023-02-28T17:44:34;3.00;99.90
36352;DHT22;22382;44.768;17.206;2023-02-28T17:47:01;3.00;99.90
36352;DHT22;22382;44.768;17.206;2023-02-28T17:49:28;3.00;99.90
36352;DHT22;22382;44.768;17.206;2023-02-28T17:51:55;3.00;99.90
36352;DHT22;22382;44.768;17.206;2023-02-28T17:54:22;3.00;99.90
36352;DHT22;22382;44.768;17.206;2023-02-28T17:56:51;3.00;99.90
36352;DHT22;22382;44.768;17.206;2023-02-28T17:59:18;3.00;99.90
36352;DHT22;22382;44.768;17.206;2023-02-28T18:01:45;3.00;99.90
36352;DHT22;22382;44.768;17.206;2023-02-28T18:04:12;3.00;99.90
36352;DHT22;22382;44.768;17.206;2023-02-28T18:06:40;2.90;99.90
36352;DHT22;22382;44.768;17.206;2023-02-28T18:09:18;2.90;99.90
36352;DHT22;22382;44.768;17.206;2023-02-28T18:11:47;2.90;99.90